Rockwood, TN (37854)

1:00 PM EDT on September 17, 2014 (GMT -0400)
Rockwood, TN | Change Station
CLOSE
Current Station
Personal Weather Station
Location: Rockwood, TN
Elevation: 988 ft
Nearby Weather Stations

Elev 988 ft 35.87 °N, 84.66 °W | Updated 13 minutes ago

Clear
Clear
72.5 °F
Feels Like 76 °F
N
0.0
Wind Variable Wind from SSE
Gusts 6.0 mph

Today
High -- | Low -- °F
--% Chance of Precip.
Yesterday
High -- | Low -- °F
Precip. -- in
7:22 AM 7:42 PM
Waning Crescent, 34% visible
Pressure 29.98 in
Visibility 10.0 miles
Clouds Scattered Clouds 3400 ft
Heat Index 76 °F
Dew Point 58 °F
Humidity 60%
Rainfall 0.00 in
Snow Depth Not available.
UV 7 out of 12
Pollen 7.20 out of 12
Ozone Good
Flu Activity Not available.
METAR KOQT 171653Z AUTO 31004KT 10SM SCT034 23/13 A3001 RMK AO2 SLP152 T02330128

More Conditions Fewer Conditions

Pressure 29.98 in
Visibility 10.0 miles
Clouds Scattered Clouds 3400 ft
Heat Index 76 °F
Dew Point 58 °F
Humidity 60%
Rainfall 0.00 in
Snow Depth Not available.
UV 7 out of 12
Pollen 7.20 out of 12
Ozone Good
Flu Activity Not available.
METAR KOQT 171653Z AUTO 31004KT 10SM SCT034 23/13 A3001 RMK AO2 SLP152 T02330128

More Conditions Fewer Conditions

10-Day Weather Forecast

Almanac

Astronomy

Sep. 17, 2014 Rise Set
Actual Time 7:22 AM EDT 7:42 PM EDT
Civil Twilight 6:57 AM EDT 8:08 PM EDT
Nautical Twilight 6:27 AM EDT 8:38 PM EDT
Astronomical Twilight 5:56 AM EDT 9:08 PM EDT
Moon 1:30 AM EDT 3:44 PM EDT
Length of Visible Light 13h 11m
Length of Day
12h 20m
Tomorrow will be 2m 14s shorter.
Waning Crescent, 34% of the Moon is Illuminated
Today
Waning Crescent
Sep 24
New
Oct 1
First Quarter
Oct 8
Full
Oct 15
Last Quarter

Today's Extremes

State Highs State Lows

Community

WunderPhotos

Upload Photos

1,754,106 photos uploaded!

Nearby

Air Quality

  Air Quality AQ Index Pollutant
Yesterday Good
PM2.5
Yesterday Good
OZONE
Current Good
OZONE
Wednesday Good
PM2.5
Wednesday Good
OZONE
Thursday Good
OZONE
Thursday Good
PM2.5

Snow Depth

Station Depth Elevation
No new snow has been reported.

Earthquake Activity

City Distance Mag. Time & Date
No recent earthquake activity has been reported nearby.
Minimum magnitude displayed is 2.5.

Coastal Water Temperatures

Place Temperature
No Stations Reporting

Nearby Weather Stations